sensor_id;sensor_type;location;lat;lon;timestamp;P1;durP1;ratioP1;P2;durP2;ratioP2
75450;SDS011;64029;48.244;9.188;2023-05-29T00:00:11;8.53;;;5.00;;
75450;SDS011;64029;48.244;9.188;2023-05-29T00:02:41;10.37;;;5.90;;
75450;SDS011;64029;48.244;9.188;2023-05-29T00:05:10;8.37;;;5.53;;
75450;SDS011;64029;48.244;9.188;2023-05-29T00:07:38;11.83;;;5.63;;
75450;SDS011;64029;48.244;9.188;2023-05-29T00:10:05;8.00;;;5.87;;
75450;SDS011;64029;48.244;9.188;2023-05-29T00:12:33;10.27;;;5.80;;
75450;SDS011;64029;48.244;9.188;2023-05-29T00:15:00;7.17;;;4.50;;
75450;SDS011;64029;48.244;9.188;2023-05-29T00:17:28;9.23;;;5.50;;
75450;SDS011;64029;48.244;9.188;2023-05-29T00:19:57;10.50;;;5.53;;
75450;SDS011;64029;48.244;9.188;2023-05-29T00:22:25;8.40;;;5.10;;
75450;SDS011;64029;48.244;9.188;2023-05-29T00:24:52;9.47;;;5.40;;
75450;SDS011;64029;48.244;9.188;2023-05-29T00:27:19;8.70;;;5.33;;
75450;SDS011;64029;48.244;9.188;2023-05-29T00:29:46;11.60;;;5.67;;
75450;SDS011;64029;48.244;9.188;2023-05-29T00:32:12;12.80;;;5.00;;
75450;SDS011;64029;48.244;9.188;2023-05-29T00:34:39;6.50;;;4.63;;
75450;SDS011;64029;48.244;9.188;2023-05-29T00:37:06;9.63;;;5.70;;
75450;SDS011;64029;48.244;9.188;2023-05-29T00:39:34;7.50;;;5.23;;
75450;SDS011;64029;48.244;9.188;2023-05-29T00:42:01;8.67;;;4.80;;
75450;SDS011;64029;48.244;9.188;2023-05-29T00:44:28;7.67;;;5.07;;
75450;SDS011;64029;48.244;9.188;2023-05-29T00:46:55;9.80;;;5.43;;
75450;SDS011;64029;48.244;9.188;2023-05-29T00:49:23;9.33;;;5.20;;
75450;SDS011;64029;48.244;9.188;2023-05-29T00:51:51;7.20;;;4.53;;
75450;SDS011;64029;48.244;9.188;2023-05-29T00:54:21;9.87;;;5.67;;
75450;SDS011;64029;48.244;9.188;2023-05-29T00:56:53;8.47;;;5.30;;
75450;SDS011;64029;48.244;9.188;2023-05-29T00:59:21;9.27;;;5.07;;
75450;SDS011;64029;48.244;9.188;2023-05-29T01:01:48;9.50;;;5.33;;
75450;SDS011;64029;48.244;9.188;2023-05-29T01:04:16;8.03;;;5.40;;
75450;SDS011;64029;48.244;9.188;2023-05-29T01:06:43;9.03;;;5.37;;
75450;SDS011;64029;48.244;9.188;2023-05-29T01:09:11;7.77;;;5.03;;
75450;SDS011;64029;48.244;9.188;2023-05-29T01:11:40;9.70;;;5.30;;
75450;SDS011;64029;48.244;9.188;2023-05-29T01:14:17;11.60;;;5.30;;
75450;SDS011;64029;48.244;9.188;2023-05-29T01:16:51;9.37;;;4.97;;
75450;SDS011;64029;48.244;9.188;2023-05-29T01:19:31;7.67;;;5.73;;
75450;SDS011;64029;48.244;9.188;2023-05-29T01:22:18;9.83;;;5.30;;
75450;SDS011;64029;48.244;9.188;2023-05-29T01:24:54;11.17;;;5.80;;
75450;SDS011;64029;48.244;9.188;2023-05-29T01:27:25;12.03;;;6.30;;
75450;SDS011;64029;48.244;9.188;2023-05-29T01:29:55;9.83;;;5.93;;
75450;SDS011;64029;48.244;9.188;2023-05-29T01:32:24;13.33;;;6.10;;
75450;SDS011;64029;48.244;9.188;2023-05-29T01:34:52;12.43;;;5.80;;
75450;SDS011;64029;48.244;9.188;2023-05-29T01:37:19;6.47;;;4.90;;
75450;SDS011;64029;48.244;9.188;2023-05-29T01:39:46;9.60;;;5.47;;
75450;SDS011;64029;48.244;9.188;2023-05-29T01:42:13;8.63;;;5.17;;
75450;SDS011;64029;48.244;9.188;2023-05-29T01:44:41;11.90;;;5.67;;
75450;SDS011;64029;48.244;9.188;2023-05-29T01:47:09;9.00;;;5.47;;
75450;SDS011;64029;48.244;9.188;2023-05-29T01:49:36;8.93;;;5.30;;
75450;SDS011;64029;48.244;9.188;2023-05-29T01:52:05;9.40;;;5.40;;
75450;SDS011;64029;48.244;9.188;2023-05-29T01:54:32;10.30;;;5.27;;
75450;SDS011;64029;48.244;9.188;2023-05-29T01:56:59;8.27;;;5.17;;
75450;SDS011;64029;48.244;9.188;2023-05-29T01:59:27;7.77;;;4.90;;
75450;SDS011;64029;48.244;9.188;2023-05-29T02:01:56;6.73;;;5.03;;
75450;SDS011;64029;48.244;9.188;2023-05-29T02:04:23;8.30;;;5.30;;
75450;SDS011;64029;48.244;9.188;2023-05-29T02:06:50;7.67;;;5.20;;
75450;SDS011;64029;48.244;9.188;2023-05-29T02:09:18;6.63;;;4.97;;
75450;SDS011;64029;48.244;9.188;2023-05-29T02:11:45;7.47;;;5.17;;
75450;SDS011;64029;48.244;9.188;2023-05-29T02:14:12;7.33;;;4.90;;
75450;SDS011;64029;48.244;9.188;2023-05-29T02:16:39;8.73;;;5.13;;
75450;SDS011;64029;48.244;9.188;2023-05-29T02:19:07;8.50;;;4.70;;
75450;SDS011;64029;48.244;9.188;2023-05-29T02:21:34;7.30;;;4.97;;
75450;SDS011;64029;48.244;9.188;2023-05-29T02:24:01;7.40;;;5.20;;
75450;SDS011;64029;48.244;9.188;2023-05-29T02:26:27;7.70;;;5.00;;
75450;SDS011;64029;48.244;9.188;2023-05-29T02:28:54;10.27;;;6.20;;
75450;SDS011;64029;48.244;9.188;2023-05-29T02:31:21;6.97;;;5.07;;
75450;SDS011;64029;48.244;9.188;2023-05-29T02:33:48;7.47;;;5.40;;
75450;SDS011;64029;48.244;9.188;2023-05-29T02:36:16;8.97;;;4.90;;
75450;SDS011;64029;48.244;9.188;2023-05-29T02:38:43;6.70;;;4.87;;
75450;SDS011;64029;48.244;9.188;2023-05-29T02:41:10;6.57;;;4.90;;
75450;SDS011;64029;48.244;9.188;2023-05-29T02:43:36;12.93;;;5.10;;
75450;SDS011;64029;48.244;9.188;2023-05-29T02:46:03;7.00;;;4.57;;
75450;SDS011;64029;48.244;9.188;2023-05-29T02:48:30;11.70;;;5.50;;
75450;SDS011;64029;48.244;9.188;2023-05-29T02:50:57;8.07;;;4.97;;
75450;SDS011;64029;48.244;9.188;2023-05-29T02:53:25;9.23;;;5.00;;
75450;SDS011;64029;48.244;9.188;2023-05-29T02:55:52;6.97;;;4.83;;
75450;SDS011;64029;48.244;9.188;2023-05-29T02:58:19;6.40;;;4.50;;
75450;SDS011;64029;48.244;9.188;2023-05-29T03:00:46;8.50;;;4.40;;
75450;SDS011;64029;48.244;9.188;2023-05-29T03:03:13;6.83;;;4.97;;
75450;SDS011;64029;48.244;9.188;2023-05-29T03:05:40;7.70;;;4.63;;
75450;SDS011;64029;48.244;9.188;2023-05-29T03:08:07;7.57;;;5.40;;
75450;SDS011;64029;48.244;9.188;2023-05-29T03:10:35;9.77;;;5.23;;
75450;SDS011;64029;48.244;9.188;2023-05-29T03:13:02;7.90;;;4.60;;
75450;SDS011;64029;48.244;9.188;2023-05-29T03:15:28;5.90;;;4.27;;
75450;SDS011;64029;48.244;9.188;2023-05-29T03:17:55;6.70;;;4.67;;
75450;SDS011;64029;48.244;9.188;2023-05-29T03:20:22;9.00;;;5.00;;
75450;SDS011;64029;48.244;9.188;2023-05-29T03:22:51;7.13;;;5.10;;
75450;SDS011;64029;48.244;9.188;2023-05-29T03:25:19;9.23;;;5.47;;
75450;SDS011;64029;48.244;9.188;2023-05-29T03:27:47;9.00;;;5.03;;
75450;SDS011;64029;48.244;9.188;2023-05-29T03:30:14;7.00;;;4.40;;
75450;SDS011;64029;48.244;9.188;2023-05-29T03:32:41;7.27;;;4.47;;
75450;SDS011;64029;48.244;9.188;2023-05-29T03:35:08;6.27;;;3.90;;
75450;SDS011;64029;48.244;9.188;2023-05-29T03:37:35;7.30;;;4.50;;
75450;SDS011;64029;48.244;9.188;2023-05-29T03:40:02;9.10;;;4.67;;
75450;SDS011;64029;48.244;9.188;2023-05-29T03:42:30;10.23;;;5.50;;
75450;SDS011;64029;48.244;9.188;2023-05-29T03:44:58;5.80;;;4.47;;
75450;SDS011;64029;48.244;9.188;2023-05-29T03:47:25;9.73;;;4.80;;
75450;SDS011;64029;48.244;9.188;2023-05-29T03:49:52;5.60;;;4.30;;
75450;SDS011;64029;48.244;9.188;2023-05-29T03:52:19;8.67;;;4.97;;
75450;SDS011;64029;48.244;9.188;2023-05-29T03:54:45;7.53;;;4.60;;
75450;SDS011;64029;48.244;9.188;2023-05-29T03:57:12;8.10;;;5.00;;
75450;SDS011;64029;48.244;9.188;2023-05-29T03:59:39;6.23;;;4.30;;
75450;SDS011;64029;48.244;9.188;2023-05-29T04:02:07;8.50;;;5.40;;
75450;SDS011;64029;48.244;9.188;2023-05-29T04:04:34;7.53;;;4.53;;
75450;SDS011;64029;48.244;9.188;2023-05-29T04:07:01;7.70;;;5.13;;
75450;SDS011;64029;48.244;9.188;2023-05-29T04:09:28;8.50;;;5.13;;
75450;SDS011;64029;48.244;9.188;2023-05-29T04:11:54;9.83;;;4.83;;
75450;SDS011;64029;48.244;9.188;2023-05-29T04:14:21;8.20;;;4.83;;
75450;SDS011;64029;48.244;9.188;2023-05-29T04:16:48;7.90;;;4.60;;
75450;SDS011;64029;48.244;9.188;2023-05-29T04:19:16;9.10;;;4.90;;
75450;SDS011;64029;48.244;9.188;2023-05-29T04:21:43;8.10;;;4.60;;
75450;SDS011;64029;48.244;9.188;2023-05-29T04:24:10;6.83;;;5.00;;
75450;SDS011;64029;48.244;9.188;2023-05-29T04:26:37;10.13;;;4.33;;
75450;SDS011;64029;48.244;9.188;2023-05-29T04:29:06;7.80;;;4.67;;
75450;SDS011;64029;48.244;9.188;2023-05-29T04:31:32;12.63;;;4.87;;
75450;SDS011;64029;48.244;9.188;2023-05-29T04:34:01;7.10;;;5.30;;
75450;SDS011;64029;48.244;9.188;2023-05-29T04:36:31;8.60;;;4.37;;
75450;SDS011;64029;48.244;9.188;2023-05-29T04:38:58;9.13;;;5.00;;
75450;SDS011;64029;48.244;9.188;2023-05-29T04:41:25;6.90;;;5.13;;
75450;SDS011;64029;48.244;9.188;2023-05-29T04:43:56;9.23;;;4.57;;
75450;SDS011;64029;48.244;9.188;2023-05-29T04:46:23;14.40;;;5.13;;
75450;SDS011;64029;48.244;9.188;2023-05-29T04:48:50;7.70;;;5.70;;
75450;SDS011;64029;48.244;9.188;2023-05-29T04:51:18;6.30;;;4.80;;
75450;SDS011;64029;48.244;9.188;2023-05-29T04:53:47;6.37;;;4.80;;
75450;SDS011;64029;48.244;9.188;2023-05-29T04:56:14;7.50;;;4.00;;
75450;SDS011;64029;48.244;9.188;2023-05-29T04:58:41;7.63;;;5.03;;
75450;SDS011;64029;48.244;9.188;2023-05-29T05:01:09;8.60;;;4.80;;
75450;SDS011;64029;48.244;9.188;2023-05-29T05:03:39;7.30;;;4.47;;
75450;SDS011;64029;48.244;9.188;2023-05-29T05:06:06;8.40;;;5.10;;
75450;SDS011;64029;48.244;9.188;2023-05-29T05:08:33;9.80;;;5.20;;
75450;SDS011;64029;48.244;9.188;2023-05-29T05:11:01;6.13;;;4.67;;
75450;SDS011;64029;48.244;9.188;2023-05-29T05:13:28;8.10;;;4.93;;
75450;SDS011;64029;48.244;9.188;2023-05-29T05:15:55;8.20;;;5.07;;
75450;SDS011;64029;48.244;9.188;2023-05-29T05:18:22;8.00;;;5.40;;
75450;SDS011;64029;48.244;9.188;2023-05-29T05:20:49;9.30;;;5.90;;
75450;SDS011;64029;48.244;9.188;2023-05-29T05:23:16;8.07;;;4.60;;
75450;SDS011;64029;48.244;9.188;2023-05-29T05:25:43;9.70;;;4.97;;
75450;SDS011;64029;48.244;9.188;2023-05-29T05:28:11;5.53;;;4.40;;
75450;SDS011;64029;48.244;9.188;2023-05-29T05:30:38;8.17;;;4.97;;
75450;SDS011;64029;48.244;9.188;2023-05-29T05:33:05;7.43;;;5.30;;
75450;SDS011;64029;48.244;9.188;2023-05-29T05:35:32;8.20;;;5.20;;
75450;SDS011;64029;48.244;9.188;2023-05-29T05:38:00;6.93;;;5.20;;
75450;SDS011;64029;48.244;9.188;2023-05-29T05:40:26;8.47;;;6.00;;
75450;SDS011;64029;48.244;9.188;2023-05-29T05:42:53;10.50;;;6.20;;
75450;SDS011;64029;48.244;9.188;2023-05-29T05:45:21;7.83;;;5.30;;
75450;SDS011;64029;48.244;9.188;2023-05-29T05:47:48;10.90;;;5.47;;
75450;SDS011;64029;48.244;9.188;2023-05-29T05:50:15;11.07;;;5.00;;
75450;SDS011;64029;48.244;9.188;2023-05-29T05:52:42;7.13;;;5.27;;
75450;SDS011;64029;48.244;9.188;2023-05-29T05:55:09;9.23;;;5.20;;
75450;SDS011;64029;48.244;9.188;2023-05-29T05:57:35;8.03;;;5.60;;
75450;SDS011;64029;48.244;9.188;2023-05-29T06:00:02;10.00;;;5.23;;
75450;SDS011;64029;48.244;9.188;2023-05-29T06:02:37;11.13;;;5.40;;
75450;SDS011;64029;48.244;9.188;2023-05-29T06:05:06;8.00;;;5.60;;
75450;SDS011;64029;48.244;9.188;2023-05-29T06:07:34;7.40;;;4.93;;
75450;SDS011;64029;48.244;9.188;2023-05-29T06:10:01;10.10;;;5.90;;
75450;SDS011;64029;48.244;9.188;2023-05-29T06:12:28;6.27;;;4.50;;
75450;SDS011;64029;48.244;9.188;2023-05-29T06:14:55;9.03;;;5.47;;
75450;SDS011;64029;48.244;9.188;2023-05-29T06:17:22;8.77;;;5.20;;
75450;SDS011;64029;48.244;9.188;2023-05-29T06:19:50;9.10;;;5.33;;
75450;SDS011;64029;48.244;9.188;2023-05-29T06:22:18;9.40;;;5.70;;
75450;SDS011;64029;48.244;9.188;2023-05-29T06:24:45;8.50;;;5.00;;
75450;SDS011;64029;48.244;9.188;2023-05-29T06:27:12;7.63;;;5.03;;
75450;SDS011;64029;48.244;9.188;2023-05-29T06:29:38;7.60;;;5.10;;
75450;SDS011;64029;48.244;9.188;2023-05-29T06:32:05;7.63;;;5.37;;
75450;SDS011;64029;48.244;9.188;2023-05-29T06:34:32;9.43;;;5.00;;
75450;SDS011;64029;48.244;9.188;2023-05-29T06:37:00;7.83;;;5.00;;
75450;SDS011;64029;48.244;9.188;2023-05-29T06:39:27;8.20;;;4.93;;
75450;SDS011;64029;48.244;9.188;2023-05-29T06:41:54;12.63;;;5.70;;
75450;SDS011;64029;48.244;9.188;2023-05-29T06:44:21;8.40;;;5.40;;
75450;SDS011;64029;48.244;9.188;2023-05-29T06:46:48;7.90;;;5.60;;
75450;SDS011;64029;48.244;9.188;2023-05-29T06:49:15;7.43;;;5.63;;
75450;SDS011;64029;48.244;9.188;2023-05-29T06:51:41;8.23;;;5.50;;
75450;SDS011;64029;48.244;9.188;2023-05-29T06:54:10;7.10;;;4.90;;
75450;SDS011;64029;48.244;9.188;2023-05-29T06:56:37;7.30;;;5.40;;
75450;SDS011;64029;48.244;9.188;2023-05-29T06:59:03;10.00;;;5.67;;
75450;SDS011;64029;48.244;9.188;2023-05-29T07:01:30;9.07;;;5.10;;
75450;SDS011;64029;48.244;9.188;2023-05-29T07:03:57;5.63;;;4.27;;
75450;SDS011;64029;48.244;9.188;2023-05-29T07:06:24;10.73;;;5.20;;
75450;SDS011;64029;48.244;9.188;2023-05-29T07:08:51;9.00;;;5.63;;
75450;SDS011;64029;48.244;9.188;2023-05-29T07:11:19;7.37;;;4.70;;
75450;SDS011;64029;48.244;9.188;2023-05-29T07:13:46;7.17;;;5.13;;
75450;SDS011;64029;48.244;9.188;2023-05-29T07:16:12;6.60;;;4.53;;
75450;SDS011;64029;48.244;9.188;2023-05-29T07:18:39;9.50;;;5.77;;
75450;SDS011;64029;48.244;9.188;2023-05-29T07:21:06;6.50;;;4.83;;
75450;SDS011;64029;48.244;9.188;2023-05-29T07:23:33;6.73;;;4.50;;
75450;SDS011;64029;48.244;9.188;2023-05-29T07:26:00;6.90;;;5.50;;
75450;SDS011;64029;48.244;9.188;2023-05-29T07:28:28;6.77;;;4.57;;
75450;SDS011;64029;48.244;9.188;2023-05-29T07:30:55;5.97;;;4.77;;
75450;SDS011;64029;48.244;9.188;2023-05-29T07:33:21;7.47;;;4.73;;
75450;SDS011;64029;48.244;9.188;2023-05-29T07:35:48;7.30;;;5.63;;
75450;SDS011;64029;48.244;9.188;2023-05-29T07:38:15;7.97;;;4.77;;
75450;SDS011;64029;48.244;9.188;2023-05-29T07:40:42;9.17;;;5.37;;
75450;SDS011;64029;48.244;9.188;2023-05-29T07:43:09;5.63;;;4.70;;
75450;SDS011;64029;48.244;9.188;2023-05-29T07:45:37;7.87;;;5.47;;
75450;SDS011;64029;48.244;9.188;2023-05-29T07:48:04;7.57;;;4.97;;
75450;SDS011;64029;48.244;9.188;2023-05-29T07:50:31;7.27;;;5.13;;
75450;SDS011;64029;48.244;9.188;2023-05-29T07:52:58;10.20;;;5.40;;
75450;SDS011;64029;48.244;9.188;2023-05-29T07:55:26;8.60;;;5.70;;
75450;SDS011;64029;48.244;9.188;2023-05-29T07:57:52;7.53;;;4.23;;
75450;SDS011;64029;48.244;9.188;2023-05-29T08:00:19;10.60;;;5.40;;
75450;SDS011;64029;48.244;9.188;2023-05-29T08:02:48;6.70;;;4.87;;
75450;SDS011;64029;48.244;9.188;2023-05-29T08:05:14;7.30;;;4.87;;
75450;SDS011;64029;48.244;9.188;2023-05-29T08:07:41;6.93;;;4.83;;
75450;SDS011;64029;48.244;9.188;2023-05-29T08:10:09;10.63;;;5.30;;
75450;SDS011;64029;48.244;9.188;2023-05-29T08:12:36;8.20;;;5.70;;
75450;SDS011;64029;48.244;9.188;2023-05-29T08:15:03;8.33;;;4.87;;
75450;SDS011;64029;48.244;9.188;2023-05-29T08:17:30;8.57;;;5.00;;
75450;SDS011;64029;48.244;9.188;2023-05-29T08:19:58;7.43;;;5.20;;
75450;SDS011;64029;48.244;9.188;2023-05-29T08:22:27;5.50;;;4.83;;
75450;SDS011;64029;48.244;9.188;2023-05-29T08:24:55;5.33;;;4.83;;
75450;SDS011;64029;48.244;9.188;2023-05-29T08:27:22;6.60;;;4.90;;
75450;SDS011;64029;48.244;9.188;2023-05-29T08:29:49;6.20;;;5.23;;
75450;SDS011;64029;48.244;9.188;2023-05-29T08:32:16;8.10;;;5.20;;
75450;SDS011;64029;48.244;9.188;2023-05-29T08:34:43;8.03;;;5.27;;
75450;SDS011;64029;48.244;9.188;2023-05-29T08:37:12;5.70;;;4.70;;
75450;SDS011;64029;48.244;9.188;2023-05-29T08:39:39;54.97;;;6.23;;
75450;SDS011;64029;48.244;9.188;2023-05-29T08:42:07;7.63;;;5.20;;
75450;SDS011;64029;48.244;9.188;2023-05-29T08:44:39;7.00;;;4.70;;
75450;SDS011;64029;48.244;9.188;2023-05-29T08:47:07;8.27;;;5.53;;
75450;SDS011;64029;48.244;9.188;2023-05-29T08:49:37;9.17;;;5.00;;
75450;SDS011;64029;48.244;9.188;2023-05-29T08:52:09;6.97;;;5.00;;
75450;SDS011;64029;48.244;9.188;2023-05-29T08:54:39;9.10;;;4.97;;
75450;SDS011;64029;48.244;9.188;2023-05-29T08:57:06;7.20;;;4.77;;
75450;SDS011;64029;48.244;9.188;2023-05-29T08:59:33;10.03;;;5.17;;
75450;SDS011;64029;48.244;9.188;2023-05-29T09:02:03;8.73;;;5.40;;
75450;SDS011;64029;48.244;9.188;2023-05-29T09:04:30;6.97;;;5.23;;
75450;SDS011;64029;48.244;9.188;2023-05-29T09:06:58;8.30;;;4.90;;
75450;SDS011;64029;48.244;9.188;2023-05-29T09:09:25;7.20;;;4.97;;
75450;SDS011;64029;48.244;9.188;2023-05-29T09:11:54;7.17;;;4.93;;
75450;SDS011;64029;48.244;9.188;2023-05-29T09:14:34;6.73;;;5.13;;
75450;SDS011;64029;48.244;9.188;2023-05-29T09:17:03;6.63;;;5.00;;
75450;SDS011;64029;48.244;9.188;2023-05-29T09:19:30;6.30;;;4.87;;
75450;SDS011;64029;48.244;9.188;2023-05-29T09:22:00;9.63;;;5.33;;
75450;SDS011;64029;48.244;9.188;2023-05-29T09:24:29;7.77;;;5.40;;
75450;SDS011;64029;48.244;9.188;2023-05-29T09:26:58;5.97;;;4.83;;
75450;SDS011;64029;48.244;9.188;2023-05-29T09:29:25;8.43;;;5.50;;
75450;SDS011;64029;48.244;9.188;2023-05-29T09:31:52;7.03;;;5.10;;
75450;SDS011;64029;48.244;9.188;2023-05-29T09:34:19;6.90;;;5.00;;
75450;SDS011;64029;48.244;9.188;2023-05-29T09:36:48;6.53;;;4.93;;
75450;SDS011;64029;48.244;9.188;2023-05-29T09:39:16;8.63;;;5.30;;
75450;SDS011;64029;48.244;9.188;2023-05-29T09:41:43;5.30;;;4.53;;
75450;SDS011;64029;48.244;9.188;2023-05-29T09:44:13;7.53;;;4.20;;
75450;SDS011;64029;48.244;9.188;2023-05-29T09:46:41;7.23;;;4.60;;
75450;SDS011;64029;48.244;9.188;2023-05-29T09:49:08;6.47;;;4.90;;
75450;SDS011;64029;48.244;9.188;2023-05-29T09:51:37;6.00;;;5.20;;
75450;SDS011;64029;48.244;9.188;2023-05-29T09:54:13;7.33;;;4.50;;
75450;SDS011;64029;48.244;9.188;2023-05-29T09:56:41;6.27;;;4.77;;
75450;SDS011;64029;48.244;9.188;2023-05-29T09:59:12;6.57;;;4.80;;
75450;SDS011;64029;48.244;9.188;2023-05-29T10:01:40;6.23;;;4.53;;
75450;SDS011;64029;48.244;9.188;2023-05-29T10:04:10;8.30;;;5.40;;
75450;SDS011;64029;48.244;9.188;2023-05-29T10:06:39;9.57;;;5.03;;
75450;SDS011;64029;48.244;9.188;2023-05-29T10:09:14;7.33;;;4.87;;
75450;SDS011;64029;48.244;9.188;2023-05-29T10:11:44;7.07;;;4.87;;
75450;SDS011;64029;48.244;9.188;2023-05-29T10:14:16;6.77;;;4.40;;
75450;SDS011;64029;48.244;9.188;2023-05-29T10:16:45;7.80;;;4.60;;
75450;SDS011;64029;48.244;9.188;2023-05-29T10:19:16;7.37;;;4.47;;
75450;SDS011;64029;48.244;9.188;2023-05-29T10:21:48;6.93;;;4.87;;
75450;SDS011;64029;48.244;9.188;2023-05-29T10:24:15;6.10;;;4.63;;
75450;SDS011;64029;48.244;9.188;2023-05-29T10:26:46;7.23;;;4.20;;
75450;SDS011;64029;48.244;9.188;2023-05-29T10:29:17;6.60;;;4.30;;
75450;SDS011;64029;48.244;9.188;2023-05-29T10:31:59;7.57;;;4.77;;
75450;SDS011;64029;48.244;9.188;2023-05-29T10:34:33;5.40;;;4.20;;
75450;SDS011;64029;48.244;9.188;2023-05-29T10:37:07;5.93;;;4.47;;
75450;SDS011;64029;48.244;9.188;2023-05-29T10:39:39;5.80;;;4.00;;
75450;SDS011;64029;48.244;9.188;2023-05-29T10:42:20;6.07;;;4.00;;
75450;SDS011;64029;48.244;9.188;2023-05-29T10:45:09;6.20;;;4.33;;
75450;SDS011;64029;48.244;9.188;2023-05-29T10:47:37;8.10;;;4.33;;
75450;SDS011;64029;48.244;9.188;2023-05-29T10:50:05;6.97;;;4.60;;
75450;SDS011;64029;48.244;9.188;2023-05-29T10:52:32;6.47;;;4.40;;
75450;SDS011;64029;48.244;9.188;2023-05-29T10:55:00;6.70;;;4.87;;
75450;SDS011;64029;48.244;9.188;2023-05-29T10:57:29;6.97;;;4.30;;
75450;SDS011;64029;48.244;9.188;2023-05-29T11:00:05;7.70;;;4.03;;
75450;SDS011;64029;48.244;9.188;2023-05-29T11:02:39;6.27;;;4.43;;
75450;SDS011;64029;48.244;9.188;2023-05-29T11:05:22;8.93;;;4.67;;
75450;SDS011;64029;48.244;9.188;2023-05-29T11:07:50;5.60;;;4.40;;
75450;SDS011;64029;48.244;9.188;2023-05-29T11:10:44;6.73;;;4.50;;
75450;SDS011;64029;48.244;9.188;2023-05-29T11:13:24;5.10;;;4.07;;
75450;SDS011;64029;48.244;9.188;2023-05-29T11:16:04;4.13;;;3.67;;
75450;SDS011;64029;48.244;9.188;2023-05-29T11:18:39;6.13;;;4.13;;
75450;SDS011;64029;48.244;9.188;2023-05-29T11:21:12;6.57;;;4.43;;
75450;SDS011;64029;48.244;9.188;2023-05-29T11:23:50;5.83;;;4.03;;
75450;SDS011;64029;48.244;9.188;2023-05-29T11:26:17;6.27;;;4.30;;
75450;SDS011;64029;48.244;9.188;2023-05-29T11:28:46;7.10;;;4.37;;
75450;SDS011;64029;48.244;9.188;2023-05-29T11:31:13;6.27;;;4.00;;
75450;SDS011;64029;48.244;9.188;2023-05-29T11:33:45;4.23;;;3.70;;
75450;SDS011;64029;48.244;9.188;2023-05-29T11:36:14;5.43;;;4.30;;
75450;SDS011;64029;48.244;9.188;2023-05-29T11:38:41;7.00;;;4.33;;
75450;SDS011;64029;48.244;9.188;2023-05-29T11:41:08;6.80;;;4.23;;
75450;SDS011;64029;48.244;9.188;2023-05-29T11:43:35;5.30;;;3.73;;
75450;SDS011;64029;48.244;9.188;2023-05-29T11:46:02;4.70;;;4.13;;
75450;SDS011;64029;48.244;9.188;2023-05-29T11:48:47;4.13;;;3.40;;
75450;SDS011;64029;48.244;9.188;2023-05-29T11:51:14;7.07;;;4.03;;
75450;SDS011;64029;48.244;9.188;2023-05-29T11:53:41;4.80;;;3.63;;
75450;SDS011;64029;48.244;9.188;2023-05-29T11:56:08;6.97;;;3.87;;
75450;SDS011;64029;48.244;9.188;2023-05-29T11:58:36;4.70;;;3.93;;
75450;SDS011;64029;48.244;9.188;2023-05-29T12:01:03;6.63;;;4.20;;
75450;SDS011;64029;48.244;9.188;2023-05-29T12:03:31;5.90;;;3.63;;
75450;SDS011;64029;48.244;9.188;2023-05-29T12:06:04;9.40;;;4.77;;
75450;SDS011;64029;48.244;9.188;2023-05-29T12:08:32;6.03;;;3.87;;
75450;SDS011;64029;48.244;9.188;2023-05-29T12:10:59;6.00;;;4.03;;
75450;SDS011;64029;48.244;9.188;2023-05-29T12:13:26;5.13;;;3.83;;
75450;SDS011;64029;48.244;9.188;2023-05-29T12:15:54;5.57;;;4.10;;
75450;SDS011;64029;48.244;9.188;2023-05-29T12:18:23;7.20;;;3.83;;
75450;SDS011;64029;48.244;9.188;2023-05-29T12:20:50;5.80;;;4.13;;
75450;SDS011;64029;48.244;9.188;2023-05-29T12:23:24;7.07;;;4.20;;
75450;SDS011;64029;48.244;9.188;2023-05-29T12:25:51;7.10;;;4.13;;
75450;SDS011;64029;48.244;9.188;2023-05-29T12:28:18;4.63;;;4.10;;
75450;SDS011;64029;48.244;9.188;2023-05-29T12:30:47;5.77;;;4.60;;
75450;SDS011;64029;48.244;9.188;2023-05-29T12:33:24;5.77;;;4.13;;
75450;SDS011;64029;48.244;9.188;2023-05-29T12:35:53;7.97;;;4.80;;
75450;SDS011;64029;48.244;9.188;2023-05-29T12:38:20;6.30;;;4.30;;
75450;SDS011;64029;48.244;9.188;2023-05-29T12:40:52;4.97;;;4.23;;
75450;SDS011;64029;48.244;9.188;2023-05-29T12:43:19;7.10;;;4.03;;
75450;SDS011;64029;48.244;9.188;2023-05-29T12:45:46;7.13;;;4.10;;
75450;SDS011;64029;48.244;9.188;2023-05-29T12:48:20;5.53;;;4.10;;
75450;SDS011;64029;48.244;9.188;2023-05-29T12:50:51;12.07;;;4.20;;
75450;SDS011;64029;48.244;9.188;2023-05-29T12:53:18;5.57;;;4.57;;
75450;SDS011;64029;48.244;9.188;2023-05-29T12:55:46;6.77;;;3.67;;
75450;SDS011;64029;48.244;9.188;2023-05-29T12:58:14;5.80;;;3.90;;
75450;SDS011;64029;48.244;9.188;2023-05-29T13:00:42;4.20;;;3.80;;
75450;SDS011;64029;48.244;9.188;2023-05-29T13:03:10;6.80;;;4.37;;
75450;SDS011;64029;48.244;9.188;2023-05-29T13:05:37;6.43;;;3.80;;
75450;SDS011;64029;48.244;9.188;2023-05-29T13:08:04;6.47;;;4.37;;
75450;SDS011;64029;48.244;9.188;2023-05-29T13:10:32;4.70;;;4.10;;
75450;SDS011;64029;48.244;9.188;2023-05-29T13:13:01;5.83;;;4.07;;
75450;SDS011;64029;48.244;9.188;2023-05-29T13:15:28;5.30;;;3.80;;
75450;SDS011;64029;48.244;9.188;2023-05-29T13:17:57;6.10;;;4.23;;
75450;SDS011;64029;48.244;9.188;2023-05-29T13:20:24;6.47;;;4.50;;
75450;SDS011;64029;48.244;9.188;2023-05-29T13:22:51;6.50;;;4.13;;
75450;SDS011;64029;48.244;9.188;2023-05-29T13:25:19;6.50;;;4.17;;
75450;SDS011;64029;48.244;9.188;2023-05-29T13:27:46;7.90;;;4.20;;
75450;SDS011;64029;48.244;9.188;2023-05-29T13:30:15;5.97;;;4.43;;
75450;SDS011;64029;48.244;9.188;2023-05-29T13:32:43;5.97;;;4.50;;
75450;SDS011;64029;48.244;9.188;2023-05-29T13:35:10;5.63;;;3.83;;
75450;SDS011;64029;48.244;9.188;2023-05-29T13:37:37;8.30;;;3.67;;
75450;SDS011;64029;48.244;9.188;2023-05-29T13:40:05;6.20;;;3.80;;
75450;SDS011;64029;48.244;9.188;2023-05-29T13:42:34;5.30;;;3.83;;
75450;SDS011;64029;48.244;9.188;2023-05-29T13:45:01;5.57;;;4.60;;
75450;SDS011;64029;48.244;9.188;2023-05-29T13:47:30;6.87;;;4.00;;
75450;SDS011;64029;48.244;9.188;2023-05-29T13:49:57;6.77;;;4.20;;
75450;SDS011;64029;48.244;9.188;2023-05-29T13:52:24;7.17;;;4.33;;
75450;SDS011;64029;48.244;9.188;2023-05-29T13:54:51;4.53;;;3.53;;
75450;SDS011;64029;48.244;9.188;2023-05-29T13:57:18;6.60;;;4.17;;
75450;SDS011;64029;48.244;9.188;2023-05-29T13:59:45;6.33;;;4.00;;
75450;SDS011;64029;48.244;9.188;2023-05-29T14:02:12;5.23;;;3.63;;
75450;SDS011;64029;48.244;9.188;2023-05-29T14:04:40;3.67;;;3.30;;
75450;SDS011;64029;48.244;9.188;2023-05-29T14:07:08;4.83;;;4.00;;
75450;SDS011;64029;48.244;9.188;2023-05-29T14:09:35;5.97;;;3.30;;
75450;SDS011;64029;48.244;9.188;2023-05-29T14:12:02;5.07;;;3.80;;
75450;SDS011;64029;48.244;9.188;2023-05-29T14:14:30;4.53;;;3.37;;
75450;SDS011;64029;48.244;9.188;2023-05-29T14:16:57;4.73;;;3.40;;
75450;SDS011;64029;48.244;9.188;2023-05-29T14:19:24;4.10;;;3.70;;
75450;SDS011;64029;48.244;9.188;2023-05-29T14:21:52;5.80;;;3.80;;
75450;SDS011;64029;48.244;9.188;2023-05-29T14:24:19;7.90;;;4.00;;
75450;SDS011;64029;48.244;9.188;2023-05-29T14:26:46;8.27;;;3.87;;
75450;SDS011;64029;48.244;9.188;2023-05-29T14:29:12;4.10;;;3.60;;
75450;SDS011;64029;48.244;9.188;2023-05-29T14:31:40;4.37;;;3.70;;
75450;SDS011;64029;48.244;9.188;2023-05-29T14:34:07;4.63;;;3.90;;
75450;SDS011;64029;48.244;9.188;2023-05-29T14:36:34;4.90;;;3.30;;
75450;SDS011;64029;48.244;9.188;2023-05-29T14:39:03;6.30;;;3.97;;
75450;SDS011;64029;48.244;9.188;2023-05-29T14:41:30;4.53;;;3.70;;
75450;SDS011;64029;48.244;9.188;2023-05-29T14:43:58;5.13;;;3.80;;
75450;SDS011;64029;48.244;9.188;2023-05-29T14:46:25;4.30;;;3.90;;
75450;SDS011;64029;48.244;9.188;2023-05-29T14:48:53;6.70;;;4.40;;
75450;SDS011;64029;48.244;9.188;2023-05-29T14:51:20;4.90;;;3.80;;